Terminal Aerodrome Forecast
Issued by NWS Bismarck, ND

Home | Current Version | Previous Version | Text Only | Print | Product List | Glossary Off
Versions: 1 2 3 4 5 6 7 8 9 10 11 12 13 14 15 16

000
FTUS43 KBIS 131127
TAFBIS
TAF
KBIS 131127Z 1312/1412 12009KT P6SM BKN050
     FM131400 14010KT P6SM BKN050 WS020/19035KT
     FM131800 18014KT P6SM SCT060
     FM132200 19008KT P6SM SKC
     FM140200 23004KT P6SM SKC=

USA.gov is the U.S. government's official web portal to all federal, state and local government web resources and services.